Time,TemperatureF,DewpointF,PressureIn,WindDirection,WindDirectionDegrees,WindSpeedMPH,WindSpeedGustMPH,Humidity,HourlyPrecipIn,Conditions,Clouds,dailyrainin,SoftwareType,DateUTC
2013-01-20 00:04:00,64.0,64.0,30.14,North,0,0.0,0.0,100,99.99,,,-99.99,,2013-01-20 05:04:00,
2013-01-20 00:12:00,64.0,64.0,30.14,North,0,0.0,0.0,100,99.99,,,-99.99,,2013-01-20 05:12:00,
2013-01-20 00:22:00,64.0,64.0,30.14,ENE,58,1.0,4.0,100,99.99,,,-99.99,,2013-01-20 05:22:00,
2013-01-20 00:32:00,64.0,64.0,30.14,North,8,1.0,4.0,100,99.99,,,-99.99,,2013-01-20 05:32:00,
2013-01-20 00:42:00,64.0,64.0,30.14,North,8,1.0,4.0,100,99.99,,,-99.99,,2013-01-20 05:42:00,
2013-01-20 00:53:00,63.0,63.0,30.14,NNE,20,2.0,5.0,100,99.99,,,-99.99,,2013-01-20 05:53:00,
2013-01-20 01:02:00,63.0,63.0,30.13,NNE,23,3.0,5.0,100,99.99,,,-99.99,,2013-01-20 06:02:00,
2013-01-20 01:12:00,63.0,63.0,30.13,NNE,23,3.0,5.0,100,99.99,,,-99.99,,2013-01-20 06:12:00,
2013-01-20 01:22:00,63.0,63.0,30.13,North,4,3.0,4.0,100,99.99,,,-99.99,,2013-01-20 06:22:00,
2013-01-20 01:33:00,63.0,63.0,30.12,North,6,3.0,5.0,100,99.99,,,-99.99,,2013-01-20 06:33:00,
2013-01-20 01:42:00,63.0,63.0,30.12,North,6,3.0,5.0,100,99.99,,,-99.99,,2013-01-20 06:42:00,
2013-01-20 01:52:00,62.0,62.0,30.12,NNE,23,4.0,6.0,100,99.99,,,-99.99,,2013-01-20 06:52:00,
2013-01-20 02:02:00,62.0,62.0,30.12,North,10,2.0,5.0,100,99.99,,,-99.99,,2013-01-20 07:02:00,
2013-01-20 02:12:00,62.0,62.0,30.12,North,10,2.0,5.0,100,99.99,,,-99.99,,2013-01-20 07:12:00,
2013-01-20 02:22:00,62.0,62.0,30.11,NNE,15,0.0,3.0,100,99.99,,,-99.99,,2013-01-20 07:22:00,
2013-01-20 02:32:00,61.0,61.0,30.11,NE,35,3.0,5.0,100,99.99,,,-99.99,,2013-01-20 07:32:00,
2013-01-20 02:42:00,61.0,61.0,30.11,NE,35,3.0,5.0,100,99.99,,,-99.99,,2013-01-20 07:42:00,
2013-01-20 02:52:00,61.0,61.0,30.12,NNE,20,1.0,4.0,100,99.99,,,-99.99,,2013-01-20 07:52:00,
2013-01-20 03:02:00,61.0,61.0,30.11,NNE,25,1.0,3.0,100,99.99,,,-99.99,,2013-01-20 08:02:00,
2013-01-20 03:12:00,61.0,61.0,30.11,NNE,25,1.0,3.0,100,99.99,,,-99.99,,2013-01-20 08:12:00,
2013-01-20 03:22:00,61.0,61.0,30.12,NNE,25,1.0,4.0,100,99.99,,,-99.99,,2013-01-20 08:22:00,
2013-01-20 03:32:00,61.0,61.0,30.12,NNE,21,1.0,4.0,100,99.99,,,-99.99,,2013-01-20 08:32:00,
2013-01-20 03:42:00,61.0,61.0,30.12,NNE,21,1.0,4.0,100,99.99,,,-99.99,,2013-01-20 08:42:00,
2013-01-20 03:52:00,62.0,62.0,30.12,North,8,0.0,2.0,100,99.99,,,-99.99,,2013-01-20 08:52:00,
2013-01-20 04:02:00,62.0,62.0,30.12,North,350,0.0,3.0,100,99.99,,,-99.99,,2013-01-20 09:02:00,
2013-01-20 04:12:00,62.0,62.0,30.12,North,350,0.0,3.0,100,99.99,,,-99.99,,2013-01-20 09:12:00,
2013-01-20 04:22:00,62.0,62.0,30.11,North,0,0.0,0.0,100,99.99,,,-99.99,,2013-01-20 09:22:00,
2013-01-20 04:33:00,62.0,62.0,30.11,NNE,14,3.0,6.0,100,99.99,,,-99.99,,2013-01-20 09:33:00,
2013-01-20 04:42:00,62.0,62.0,30.11,NNE,14,3.0,6.0,100,99.99,,,-99.99,,2013-01-20 09:42:00,
2013-01-20 04:52:00,62.0,62.0,30.12,North,6,4.0,7.0,100,99.99,,,-99.99,,2013-01-20 09:52:00,
2013-01-20 05:02:00,62.0,62.0,30.11,North,353,5.0,9.0,100,99.99,,,-99.99,,2013-01-20 10:02:00,
2013-01-20 05:12:00,62.0,62.0,30.11,North,353,5.0,9.0,100,99.99,,,-99.99,,2013-01-20 10:12:00,
2013-01-20 05:22:00,62.0,62.0,30.11,NNE,18,3.0,6.0,100,99.99,,,-99.99,,2013-01-20 10:22:00,
2013-01-20 05:32:00,61.0,61.0,30.11,NNE,17,3.0,6.0,100,99.99,,,-99.99,,2013-01-20 10:32:00,
2013-01-20 05:42:00,61.0,61.0,30.11,NNE,17,3.0,6.0,100,99.99,,,-99.99,,2013-01-20 10:42:00,
2013-01-20 05:52:00,61.0,61.0,30.11,NNE,18,3.0,6.0,100,99.99,,,-99.99,,2013-01-20 10:52:00,
2013-01-20 06:02:00,61.0,61.0,30.11,North,10,2.0,5.0,100,99.99,,,-99.99,,2013-01-20 11:02:00,
2013-01-20 06:12:00,61.0,61.0,30.12,North,4,3.0,6.0,100,99.99,,,-99.99,,2013-01-20 11:12:00,
2013-01-20 06:22:00,61.0,61.0,30.12,North,4,3.0,6.0,100,99.99,,,-99.99,,2013-01-20 11:22:00,
2013-01-20 06:33:00,61.0,61.0,30.12,NNW,340,5.0,10.0,100,99.99,,,-99.99,,2013-01-20 11:33:00,
2013-01-20 06:43:00,61.0,61.0,30.12,NNW,340,5.0,10.0,100,99.99,,,-99.99,,2013-01-20 11:43:00,
2013-01-20 06:53:00,61.0,61.0,30.12,North,3,4.0,7.0,100,99.99,,,-99.99,,2013-01-20 11:53:00,
2013-01-20 07:03:00,61.0,61.0,30.12,NNE,24,3.0,6.0,100,99.99,,,-99.99,,2013-01-20 12:03:00,
2013-01-20 07:12:00,61.0,61.0,30.12,NNE,24,3.0,6.0,100,99.99,,,-99.99,,2013-01-20 12:12:00,
2013-01-20 07:23:00,61.0,61.0,30.13,North,7,5.0,8.0,100,99.99,,,-99.99,,2013-01-20 12:23:00,
2013-01-20 07:33:00,61.0,61.0,30.14,NNW,338,2.0,6.0,100,99.99,,,-99.99,,2013-01-20 12:33:00,
2013-01-20 07:43:00,61.0,61.0,30.14,NNW,338,2.0,6.0,100,99.99,,,-99.99,,2013-01-20 12:43:00,
2013-01-20 07:53:00,61.0,61.0,30.14,North,0,0.0,0.0,100,99.99,,,-99.99,,2013-01-20 12:53:00,
2013-01-20 08:03:00,61.0,61.0,30.14,NNE,17,4.0,7.0,100,99.99,,,-99.99,,2013-01-20 13:03:00,
2013-01-20 08:12:00,61.0,61.0,30.14,NNE,17,4.0,7.0,100,99.99,,,-99.99,,2013-01-20 13:12:00,
2013-01-20 08:23:00,61.0,61.0,30.15,North,4,5.0,7.0,100,99.99,,,-99.99,,2013-01-20 13:23:00,
2013-01-20 08:33:00,62.0,62.0,30.16,North,4,5.0,8.0,100,99.99,,,-99.99,,2013-01-20 13:33:00,
2013-01-20 08:43:00,62.0,62.0,30.16,North,4,5.0,8.0,100,99.99,,,-99.99,,2013-01-20 13:43:00,
2013-01-20 08:52:00,62.0,62.0,30.16,NNE,13,5.0,8.0,100,99.99,,,-99.99,,2013-01-20 13:52:00,
2013-01-20 09:02:00,63.0,63.0,30.16,NNE,20,4.0,7.0,100,99.99,,,-99.99,,2013-01-20 14:02:00,
2013-01-20 09:12:00,63.0,63.0,30.16,NNE,20,4.0,7.0,100,99.99,,,-99.99,,2013-01-20 14:12:00,
2013-01-20 09:23:00,64.0,64.0,30.16,North,10,5.0,9.0,100,99.99,,,-99.99,,2013-01-20 14:23:00,
2013-01-20 09:33:00,66.0,66.0,30.16,NNE,15,4.0,10.0,100,99.99,,,-99.99,,2013-01-20 14:33:00,
2013-01-20 09:43:00,66.0,66.0,30.16,NNE,15,4.0,10.0,100,99.99,,,-99.99,,2013-01-20 14:43:00,
2013-01-20 09:53:00,67.0,66.0,30.17,NE,53,5.0,8.0,98,99.99,,,-99.99,,2013-01-20 14:53:00,
2013-01-20 10:03:00,67.0,65.0,30.17,ENE,60,4.0,10.0,92,99.99,,,-99.99,,2013-01-20 15:03:00,
2013-01-20 10:12:00,67.0,65.0,30.17,ENE,60,4.0,10.0,92,99.99,,,-99.99,,2013-01-20 15:12:00,
2013-01-20 10:23:00,67.0,64.0,30.17,ENE,58,5.0,10.0,90,99.99,,,-99.99,,2013-01-20 15:23:00,
2013-01-20 10:33:00,67.0,64.0,30.17,NE,49,6.0,10.0,89,99.99,,,-99.99,,2013-01-20 15:33:00,
2013-01-20 10:42:00,67.0,64.0,30.17,NE,49,6.0,10.0,89,99.99,,,-99.99,,2013-01-20 15:42:00,
2013-01-20 10:53:00,68.0,64.0,30.16,NE,55,5.0,9.0,86,99.99,,,-99.99,,2013-01-20 15:53:00,
2013-01-20 11:03:00,69.0,64.0,30.16,NE,53,5.0,10.0,85,99.99,,,-99.99,,2013-01-20 16:03:00,
2013-01-20 11:12:00,69.0,64.0,30.16,NE,53,5.0,10.0,85,99.99,,,-99.99,,2013-01-20 16:12:00,
2013-01-20 11:23:00,69.0,64.0,30.16,NNE,18,6.0,10.0,84,99.99,,,-99.99,,2013-01-20 16:23:00,
2013-01-20 11:33:00,70.0,64.0,30.15,North,8,7.0,12.0,80,99.99,,,-99.99,,2013-01-20 16:33:00,
2013-01-20 11:43:00,70.0,64.0,30.15,North,8,7.0,12.0,80,99.99,,,-99.99,,2013-01-20 16:43:00,
2013-01-20 11:53:00,71.0,64.0,30.14,NE,45,6.0,10.0,79,99.99,,,-99.99,,2013-01-20 16:53:00,
2013-01-20 12:03:00,71.0,63.0,30.13,North,1,7.0,12.0,77,99.99,,,-99.99,,2013-01-20 17:03:00,
2013-01-20 12:13:00,71.0,63.0,30.13,North,1,7.0,12.0,77,99.99,,,-99.99,,2013-01-20 17:13:00,
2013-01-20 12:22:00,71.0,63.0,30.13,North,6,8.0,13.0,77,99.99,,,-99.99,,2013-01-20 17:22:00,
2013-01-20 12:33:00,71.0,63.0,30.12,NNE,15,9.0,15.0,75,99.99,,,-99.99,,2013-01-20 17:33:00,
2013-01-20 12:42:00,71.0,63.0,30.12,NNE,15,9.0,15.0,75,99.99,,,-99.99,,2013-01-20 17:42:00,
2013-01-20 12:52:00,71.0,63.0,30.11,North,8,8.0,14.0,76,99.99,,,-99.99,,2013-01-20 17:52:00,
2013-01-20 13:03:00,71.0,63.0,30.11,North,3,6.0,15.0,75,99.99,,,-99.99,,2013-01-20 18:03:00,
2013-01-20 13:13:00,71.0,63.0,30.10,NE,55,8.0,12.0,75,99.99,,,-99.99,,2013-01-20 18:13:00,
2013-01-20 13:23:00,71.0,63.0,30.10,NE,55,8.0,12.0,75,99.99,,,-99.99,,2013-01-20 18:23:00,
2013-01-20 13:33:00,71.0,63.0,30.10,North,11,5.0,9.0,77,99.99,,,-99.99,,2013-01-20 18:33:00,
2013-01-20 13:43:00,71.0,63.0,30.10,North,11,5.0,9.0,77,99.99,,,-99.99,,2013-01-20 18:43:00,
2013-01-20 13:53:00,70.0,63.0,30.09,North,11,6.0,9.0,78,99.99,,,-99.99,,2013-01-20 18:53:00,
2013-01-20 14:02:00,71.0,62.0,30.08,NE,56,5.0,9.0,74,99.99,,,-99.99,,2013-01-20 19:02:00,
2013-01-20 14:12:00,71.0,62.0,30.08,NE,56,5.0,9.0,74,99.99,,,-99.99,,2013-01-20 19:12:00,
2013-01-20 14:22:00,72.0,63.0,30.07,NE,56,3.0,8.0,74,99.99,,,-99.99,,2013-01-20 19:22:00,
2013-01-20 14:33:00,72.0,63.0,30.07,NNE,18,6.0,11.0,74,99.99,,,-99.99,,2013-01-20 19:33:00,
2013-01-20 14:43:00,72.0,63.0,30.07,NNE,18,6.0,11.0,74,99.99,,,-99.99,,2013-01-20 19:43:00,
2013-01-20 14:52:00,73.0,63.0,30.06,ENE,63,4.0,9.0,70,99.99,,,-99.99,,2013-01-20 19:52:00,
2013-01-20 15:03:00,74.0,63.0,30.05,NNE,15,6.0,13.0,69,99.99,,,-99.99,,2013-01-20 20:03:00,
2013-01-20 15:12:00,74.0,63.0,30.05,NNE,15,6.0,13.0,69,99.99,,,-99.99,,2013-01-20 20:12:00,
2013-01-20 15:23:00,74.0,63.0,30.05,North,356,5.0,11.0,69,99.99,,,-99.99,,2013-01-20 20:23:00,
2013-01-20 15:33:00,74.0,63.0,30.05,North,350,6.0,9.0,69,99.99,,,-99.99,,2013-01-20 20:33:00,
2013-01-20 15:42:00,74.0,63.0,30.05,North,350,6.0,9.0,69,99.99,,,-99.99,,2013-01-20 20:42:00,
2013-01-20 15:53:00,74.0,63.0,30.05,North,10,5.0,8.0,69,99.99,,,-99.99,,2013-01-20 20:53:00,
2013-01-20 16:03:00,73.0,63.0,30.05,ENE,59,4.0,7.0,70,99.99,,,-99.99,,2013-01-20 21:03:00,
2013-01-20 16:13:00,73.0,63.0,30.05,ENE,59,4.0,7.0,70,99.99,,,-99.99,,2013-01-20 21:13:00,
2013-01-20 16:23:00,74.0,63.0,30.05,NE,55,4.0,10.0,69,99.99,,,-99.99,,2013-01-20 21:23:00,
2013-01-20 16:33:00,74.0,63.0,30.05,NE,56,4.0,8.0,69,99.99,,,-99.99,,2013-01-20 21:33:00,
2013-01-20 16:43:00,74.0,63.0,30.05,NE,56,4.0,8.0,69,99.99,,,-99.99,,2013-01-20 21:43:00,
2013-01-20 16:53:00,73.0,62.0,30.05,NNE,21,3.0,7.0,69,99.99,,,-99.99,,2013-01-20 21:53:00,
2013-01-20 17:03:00,73.0,62.0,30.05,East,101,4.0,10.0,69,99.99,,,-99.99,,2013-01-20 22:03:00,
2013-01-20 17:13:00,73.0,62.0,30.05,East,101,4.0,10.0,69,99.99,,,-99.99,,2013-01-20 22:13:00,
2013-01-20 17:23:00,73.0,63.0,30.05,ENE,58,4.0,9.0,70,99.99,,,-99.99,,2013-01-20 22:23:00,
2013-01-20 17:33:00,72.0,62.0,30.05,NE,55,5.0,10.0,72,99.99,,,-99.99,,2013-01-20 22:33:00,
2013-01-20 17:43:00,72.0,62.0,30.05,NE,55,5.0,10.0,72,99.99,,,-99.99,,2013-01-20 22:43:00,
2013-01-20 17:52:00,71.0,62.0,30.06,NE,52,5.0,10.0,74,99.99,,,-99.99,,2013-01-20 22:52:00,
2013-01-20 18:03:00,70.0,62.0,30.07,NE,48,2.0,6.0,76,99.99,,,-99.99,,2013-01-20 23:03:00,
2013-01-20 18:13:00,70.0,62.0,30.07,NE,48,2.0,6.0,76,99.99,,,-99.99,,2013-01-20 23:13:00,
2013-01-20 18:23:00,70.0,62.0,30.07,ENE,63,3.0,8.0,76,99.99,,,-99.99,,2013-01-20 23:23:00,
2013-01-20 18:33:00,69.0,61.0,30.08,NE,55,5.0,12.0,77,99.99,,,-99.99,,2013-01-20 23:33:00,
2013-01-20 18:43:00,69.0,61.0,30.08,NE,55,5.0,12.0,77,99.99,,,-99.99,,2013-01-20 23:43:00,
2013-01-20 18:53:00,68.0,61.0,30.07,ENE,66,4.0,9.0,79,99.99,,,-99.99,,2013-01-20 23:53:00,
2013-01-20 19:03:00,67.0,61.0,30.08,NE,55,4.0,9.0,80,99.99,,,-99.99,,2013-01-21 00:03:00,
2013-01-20 19:13:00,67.0,61.0,30.08,NE,55,4.0,9.0,80,99.99,,,-99.99,,2013-01-21 00:13:00,
2013-01-20 19:23:00,67.0,61.0,30.08,NE,55,5.0,10.0,82,99.99,,,-99.99,,2013-01-21 00:23:00,
2013-01-20 19:33:00,66.0,61.0,30.09,NNE,21,3.0,9.0,84,99.99,,,-99.99,,2013-01-21 00:33:00,
2013-01-20 19:43:00,66.0,61.0,30.09,NNE,21,3.0,9.0,84,99.99,,,-99.99,,2013-01-21 00:43:00,
2013-01-20 19:53:00,65.0,60.0,30.09,ENE,69,2.0,5.0,84,99.99,,,-99.99,,2013-01-21 00:53:00,
2013-01-20 20:03:00,65.0,60.0,30.08,ENE,63,2.0,6.0,85,99.99,,,-99.99,,2013-01-21 01:03:00,
2013-01-20 20:13:00,65.0,60.0,30.08,ENE,63,2.0,6.0,85,99.99,,,-99.99,,2013-01-21 01:13:00,
2013-01-20 20:23:00,64.0,60.0,30.08,ENE,58,1.0,4.0,87,99.99,,,-99.99,,2013-01-21 01:23:00,
2013-01-20 20:33:00,64.0,61.0,30.09,ENE,70,3.0,5.0,89,99.99,,,-99.99,,2013-01-21 01:33:00,
2013-01-20 20:43:00,64.0,61.0,30.09,ENE,70,3.0,5.0,89,99.99,,,-99.99,,2013-01-21 01:43:00,
2013-01-20 20:53:00,63.0,60.0,30.09,ENE,58,3.0,5.0,90,99.99,,,-99.99,,2013-01-21 01:53:00,
2013-01-20 21:03:00,63.0,60.0,30.09,ENE,63,1.0,5.0,91,99.99,,,-99.99,,2013-01-21 02:03:00,
2013-01-20 21:12:00,63.0,60.0,30.09,ENE,63,1.0,5.0,91,99.99,,,-99.99,,2013-01-21 02:12:00,
2013-01-20 21:23:00,62.0,60.0,30.10,ENE,68,3.0,5.0,92,99.99,,,-99.99,,2013-01-21 02:23:00,
2013-01-20 21:33:00,62.0,60.0,30.10,ENE,58,3.0,4.0,92,99.99,,,-99.99,,2013-01-21 02:33:00,
2013-01-20 21:43:00,62.0,60.0,30.10,ENE,58,3.0,4.0,92,99.99,,,-99.99,,2013-01-21 02:43:00,
2013-01-20 21:53:00,62.0,60.0,30.10,NE,56,4.0,7.0,92,99.99,,,-99.99,,2013-01-21 02:53:00,
2013-01-20 22:03:00,62.0,59.0,30.10,ENE,58,3.0,8.0,90,99.99,,,-99.99,,2013-01-21 03:03:00,
2013-01-20 22:13:00,62.0,59.0,30.10,ENE,58,3.0,8.0,90,99.99,,,-99.99,,2013-01-21 03:13:00,
2013-01-20 22:23:00,62.0,59.0,30.10,NE,53,3.0,6.0,89,99.99,,,-99.99,,2013-01-21 03:23:00,
2013-01-20 22:33:00,62.0,58.0,30.10,ENE,62,4.0,8.0,87,99.99,,,-99.99,,2013-01-21 03:33:00,
2013-01-20 22:43:00,62.0,58.0,30.10,ENE,62,4.0,8.0,87,99.99,,,-99.99,,2013-01-21 03:43:00,
2013-01-20 22:52:00,62.0,57.0,30.09,NE,56,5.0,12.0,85,99.99,,,-99.99,,2013-01-21 03:52:00,
2013-01-20 23:03:00,62.0,58.0,30.10,NNE,13,3.0,6.0,86,99.99,,,-99.99,,2013-01-21 04:03:00,
2013-01-20 23:12:00,62.0,58.0,30.10,NNE,13,3.0,6.0,86,99.99,,,-99.99,,2013-01-21 04:12:00,
2013-01-20 23:23:00,62.0,58.0,30.10,NE,38,2.0,5.0,86,99.99,,,-99.99,,2013-01-21 04:23:00,
2013-01-20 23:33:00,62.0,58.0,30.10,NNE,14,2.0,4.0,87,99.99,,,-99.99,,2013-01-21 04:33:00,
2013-01-20 23:43:00,62.0,58.0,30.10,NNE,14,2.0,4.0,87,99.99,,,-99.99,,2013-01-21 04:43:00,
2013-01-20 23:53:00,62.0,58.0,30.10,NNE,17,1.0,3.0,87,99.99,,,-99.99,,2013-01-21 04:53:00,